Time;durP1;ratioP1;P1;durP2;ratioP2;P2;SDS_P1;SDS_P2;PMS_P1;PMS_P2;Temp;Humidity;BMP_temperature;BMP_pressure;BME280_temperature;BME280_humidity;BME280_pressure;Samples;Min_cycle;Max_cycle;Signal;HPM_P1;HPM_P2
2024/03/05 00:02:14;;;;;;;38.03;18.25;;;;;;;4.72;56.30;101399.94;5030821;28;20041;-69
2024/03/05 00:04:39;;;;;;;38.10;19.08;;;;;;;4.68;56.64;101393.06;5023117;28;20064;-69
2024/03/05 00:07:07;;;;;;;43.22;19.80;;;;;;;4.59;57.09;101393.97;5029808;28;20055;-68
2024/03/05 00:09:33;;;;;;;43.58;21.25;;;;;;;4.79;56.31;101400.75;5028955;28;20546;-67
2024/03/05 00:11:58;;;;;;;39.63;20.20;;;;;;;4.72;56.48;101394.78;5026139;28;20072;-66
2024/03/05 00:14:24;;;;;;;36.55;20.13;;;;;;;4.80;56.20;101405.91;5032346;28;20033;-66
2024/03/05 00:16:49;;;;;;;43.50;21.27;;;;;;;4.64;57.05;101396.53;5024700;28;20048;-66
2024/03/05 00:19:15;;;;;;;43.47;19.83;;;;;;;4.77;56.38;101397.31;5028232;28;20040;-66
2024/03/05 00:21:42;;;;;;;41.17;19.25;;;;;;;4.88;55.88;101398.13;5018303;28;20055;-66
2024/03/05 00:24:08;;;;;;;38.60;19.52;;;;;;;4.87;55.77;101400.69;5034754;28;20619;-66
2024/03/05 00:26:33;;;;;;;40.83;20.73;;;;;;;4.46;56.52;101410.47;5023172;28;20037;-65
2024/03/05 00:29:02;;;;;;;38.40;19.52;;;;;;;4.54;56.16;101406.09;5031864;28;20044;-66
2024/03/05 00:31:28;;;;;;;46.83;20.02;;;;;;;4.60;56.07;101400.00;5028371;28;20064;-66
2024/03/05 00:33:54;;;;;;;34.50;20.50;;;;;;;4.42;56.08;101401.84;5016876;28;20669;-66
2024/03/05 00:36:20;;;;;;;43.70;20.40;;;;;;;4.50;55.60;101400.94;5019928;28;20817;-65
2024/03/05 00:38:46;;;;;;;42.45;19.30;;;;;;;4.27;56.07;101404.50;4982270;28;20037;-65
2024/03/05 00:41:12;;;;;;;38.47;18.48;;;;;;;4.18;56.22;101400.25;4974780;28;20134;-64
2024/03/05 00:43:39;;;;;;;35.13;18.30;;;;;;;4.32;55.48;101402.78;4973862;28;20106;-65
2024/03/05 00:46:06;;;;;;;34.95;18.58;;;;;;;4.23;55.50;101405.41;5009269;28;20040;-64
2024/03/05 00:48:32;;;;;;;35.22;18.50;;;;;;;4.43;55.22;101405.28;5021664;28;20043;-67
2024/03/05 00:50:57;;;;;;;42.83;19.75;;;;;;;4.50;54.94;101409.56;5019237;28;20119;-67
2024/03/05 00:53:23;;;;;;;41.70;18.10;;;;;;;4.36;55.93;101407.09;5027320;28;20037;-67
2024/03/05 00:55:49;;;;;;;37.88;19.63;;;;;;;4.41;55.16;101405.31;5019009;28;20047;-67
2024/03/05 00:58:15;;;;;;;34.33;18.17;;;;;;;4.09;55.68;101402.88;5015770;28;20037;-68
2024/03/05 01:00:43;;;;;;;37.35;18.58;;;;;;;4.04;55.74;101409.81;5025395;28;20032;-68
2024/03/05 01:03:10;;;;;;;33.70;18.60;;;;;;;4.16;55.43;101406.28;5021841;28;20532;-67
2024/03/05 01:05:36;;;;;;;34.10;17.08;;;;;;;4.10;55.19;101403.75;5000040;28;20047;-68
2024/03/05 01:08:02;;;;;;;32.88;16.23;;;;;;;4.15;55.42;101407.19;5007575;28;20119;-68
2024/03/05 01:10:28;;;;;;;34.78;17.35;;;;;;;4.23;55.18;101410.59;5032217;28;20066;-73
2024/03/05 01:12:55;;;;;;;32.33;16.55;;;;;;;4.10;55.17;101407.19;5020666;28;20460;-74
2024/03/05 01:15:20;;;;;;;34.75;18.08;;;;;;;4.04;55.49;101407.22;5033777;28;20032;-73
2024/03/05 01:17:46;;;;;;;36.13;16.55;;;;;;;4.29;54.87;101407.97;5025100;28;20048;-74
2024/03/05 01:20:15;;;;;;;34.25;15.73;;;;;;;4.41;54.54;101413.06;5032477;28;20057;-74
2024/03/05 01:22:46;;;;;;;40.97;16.95;;;;;;;4.42;54.36;101413.94;5028799;28;20206;-74
2024/03/05 01:25:12;;;;;;;32.20;14.87;;;;;;;4.11;54.92;101403.72;5027339;28;20064;-73
2024/03/05 01:27:40;;;;;;;33.47;17.00;;;;;;;4.12;55.28;101412.34;5029029;28;20068;-71
2024/03/05 01:30:11;;;;;;;31.02;16.85;;;;;;;4.28;54.48;101403.66;5022138;28;20037;-71
2024/03/05 01:32:40;;;;;;;27.90;14.38;;;;;;;4.30;54.58;101406.25;5043869;28;20135;-71
2024/03/05 01:35:10;;;;;;;31.38;15.82;;;;;;;4.15;54.72;101410.63;5022556;28;20037;-70
2024/03/05 01:37:42;;;;;;;27.40;15.85;;;;;;;4.02;55.20;101406.38;5036391;28;20068;-68
2024/03/05 01:40:11;;;;;;;27.88;16.13;;;;;;;4.01;54.96;101405.50;5017895;28;20695;-67
2024/03/05 01:42:37;;;;;;;29.08;14.65;;;;;;;3.80;55.43;101405.56;5028093;28;20059;-70
2024/03/05 01:45:03;;;;;;;33.05;16.25;;;;;;;3.86;54.73;101405.56;5016291;28;21607;-69
2024/03/05 01:47:32;;;;;;;35.08;16.40;;;;;;;3.88;54.58;101411.59;5028122;28;20149;-69
2024/03/05 01:49:59;;;;;;;36.35;16.05;;;;;;;3.95;54.75;101409.84;5014538;28;20028;-69
2024/03/05 01:52:27;;;;;;;31.00;15.70;;;;;;;3.79;54.57;101414.22;5025062;28;20594;-68
2024/03/05 01:54:55;;;;;;;31.27;14.52;;;;;;;3.53;54.98;101411.69;5024031;28;20115;-68
2024/03/05 01:57:23;;;;;;;29.60;15.05;;;;;;;3.76;54.36;101412.50;5024883;28;20141;-68
2024/03/05 01:59:50;;;;;;;23.00;14.57;;;;;;;3.66;54.51;101410.78;5032306;28;20315;-68
2024/03/05 02:02:15;;;;;;;38.35;14.85;;;;;;;3.95;54.04;101409.84;5021217;28;21075;-68
2024/03/05 02:04:43;;;;;;;33.97;15.00;;;;;;;3.80;54.06;101403.00;5021996;28;20094;-68
2024/03/05 02:07:11;;;;;;;27.27;13.55;;;;;;;3.72;53.68;101402.19;5021982;28;20044;-68
2024/03/05 02:09:37;;;;;;;26.95;12.27;;;;;;;3.76;53.63;101406.44;4994394;28;20063;-68
2024/03/05 02:12:02;;;;;;;33.88;15.43;;;;;;;3.79;53.47;101399.56;5006589;28;20102;-65
2024/03/05 02:14:28;;;;;;;28.38;13.52;;;;;;;3.91;53.98;101410.72;5023052;28;20029;-67
2024/03/05 02:16:56;;;;;;;27.95;14.05;;;;;;;3.94;53.86;101403.81;5018842;28;20037;-66
2024/03/05 02:19:21;;;;;;;26.63;12.35;;;;;;;3.91;53.93;101402.97;5032391;28;20037;-67
2024/03/05 02:21:48;;;;;;;25.13;12.48;;;;;;;3.79;53.90;101409.91;5025845;28;20063;-66
2024/03/05 02:24:14;;;;;;;23.83;12.32;;;;;;;3.46;53.95;101399.66;5026644;28;20036;-65
2024/03/05 02:26:40;;;;;;;27.98;13.30;;;;;;;3.46;53.80;101405.66;5028558;28;20078;-67
2024/03/05 02:29:11;;;;;;;28.80;12.45;;;;;;;3.55;53.59;101405.66;5017812;28;20876;-64
2024/03/05 02:31:36;;;;;;;27.63;12.35;;;;;;;3.41;53.77;101404.81;5027051;28;20124;-65
2024/03/05 02:34:02;;;;;;;26.48;13.55;;;;;;;3.77;52.97;101410.78;5017383;28;20112;-66
2024/03/05 02:36:28;;;;;;;25.30;13.07;;;;;;;3.69;53.26;101409.91;5027278;28;20044;-64
2024/03/05 02:38:53;;;;;;;28.65;12.90;;;;;;;3.68;53.18;101410.81;5024071;28;20048;-66
2024/03/05 02:41:20;;;;;;;24.02;12.07;;;;;;;3.57;53.10;101414.25;5024805;28;20045;-68
2024/03/05 02:43:46;;;;;;;22.92;12.25;;;;;;;3.61;52.97;101412.53;5027322;28;20056;-68
2024/03/05 02:46:15;;;;;;;20.65;11.95;;;;;;;3.72;52.66;101407.34;5020058;28;20836;-70
2024/03/05 02:48:41;;;;;;;26.13;12.85;;;;;;;3.64;52.48;101409.09;5028199;28;20071;-69
2024/03/05 02:51:07;;;;;;;29.90;13.35;;;;;;;3.73;52.54;101415.06;5015183;28;20132;-70
2024/03/05 02:53:34;;;;;;;20.33;11.77;;;;;;;3.55;52.99;101409.97;5026731;28;20037;-69
2024/03/05 02:56:02;;;;;;;30.13;12.02;;;;;;;3.63;52.50;101410.81;5012885;28;20538;-69
2024/03/05 02:58:28;;;;;;;24.45;12.32;;;;;;;3.66;51.93;101409.94;5017433;28;20045;-69
2024/03/05 03:00:53;;;;;;;20.42;11.75;;;;;;;3.66;52.47;101407.34;5011363;28;20125;-68
2024/03/05 03:03:19;;;;;;;29.63;11.75;;;;;;;3.55;52.45;101410.81;5015976;28;20787;-67
2024/03/05 03:05:45;;;;;;;20.63;11.80;;;;;;;3.43;52.86;101410.00;5021681;28;20277;-69
2024/03/05 03:08:11;;;;;;;29.13;12.25;;;;;;;3.28;53.06;101410.84;5011270;28;20213;-70
2024/03/05 03:10:37;;;;;;;25.45;12.05;;;;;;;3.32;52.52;101417.75;5030584;28;20025;-70
2024/03/05 03:13:03;;;;;;;22.52;11.55;;;;;;;3.23;53.17;101410.00;5017551;28;20074;-70
2024/03/05 03:15:30;;;;;;;29.48;11.38;;;;;;;3.54;51.99;101419.44;5029471;28;20085;-67
2024/03/05 03:17:55;;;;;;;20.95;13.43;;;;;;;3.65;52.16;101422.00;5007690;28;20045;-71
2024/03/05 03:20:21;;;;;;;25.08;12.77;;;;;;;3.71;52.21;101421.13;5009405;28;20075;-69
2024/03/05 03:22:47;;;;;;;29.85;13.23;;;;;;;3.72;52.10;101421.13;5023477;28;20067;-70
2024/03/05 03:25:12;;;;;;;26.23;11.77;;;;;;;3.58;52.24;101421.16;5012315;28;20048;-73
2024/03/05 03:27:42;;;;;;;23.90;12.70;;;;;;;3.63;52.47;101422.84;5015356;28;20033;-71
2024/03/05 03:30:08;;;;;;;30.98;11.52;;;;;;;3.59;52.06;101422.03;4997474;28;20047;-66
2024/03/05 03:32:34;;;;;;;24.15;11.20;;;;;;;3.57;52.30;101423.75;5019663;28;20479;-66
2024/03/05 03:35:03;;;;;;;24.50;12.30;;;;;;;3.70;51.86;101424.59;5020862;28;20047;-68
2024/03/05 03:37:29;;;;;;;26.60;11.68;;;;;;;3.49;52.23;101426.34;5028836;28;20044;-65
2024/03/05 03:39:54;;;;;;;23.58;12.70;;;;;;;3.31;52.29;101422.03;5012731;28;20036;-66
2024/03/05 03:42:20;;;;;;;23.83;13.43;;;;;;;3.41;52.22;101422.06;5014838;28;20051;-66
2024/03/05 03:44:45;;;;;;;26.98;11.18;;;;;;;3.65;52.02;101421.13;5005841;28;20048;-66
2024/03/05 03:47:12;;;;;;;28.15;12.48;;;;;;;3.62;51.93;101428.91;5011954;28;20548;-66
2024/03/05 03:49:38;;;;;;;24.60;11.90;;;;;;;3.61;51.97;101429.78;5023681;28;20029;-63
2024/03/05 03:52:03;;;;;;;26.65;11.65;;;;;;;3.36;52.49;101430.66;5015966;28;20045;-64
2024/03/05 03:54:29;;;;;;;30.27;12.27;;;;;;;3.33;52.54;101429.81;4994449;28;20060;-69
2024/03/05 03:56:55;;;;;;;21.50;12.07;;;;;;;3.69;52.36;101428.03;5021172;28;20044;-70
2024/03/05 03:59:20;;;;;;;23.50;11.45;;;;;;;3.69;52.41;101435.78;5007838;28;20043;-70
2024/03/05 04:01:47;;;;;;;26.05;12.73;;;;;;;3.71;52.59;101431.47;5026612;28;20098;-69
2024/03/05 04:04:13;;;;;;;26.20;11.82;;;;;;;3.76;52.82;101424.53;4991681;28;20167;-70
2024/03/05 04:06:39;;;;;;;20.88;12.15;;;;;;;3.55;53.57;101431.50;5009111;28;20453;-70
2024/03/05 04:09:08;;;;;;;21.75;11.60;;;;;;;3.59;53.55;101429.78;5016568;28;20028;-70
2024/03/05 04:11:36;;;;;;;26.42;12.63;;;;;;;3.87;52.93;101434.88;5028089;28;20041;-70
2024/03/05 04:14:02;;;;;;;23.95;11.65;;;;;;;3.91;52.67;101445.19;5012742;28;20079;-69
2024/03/05 04:16:28;;;;;;;21.10;11.93;;;;;;;3.91;52.88;101444.34;5017679;28;20618;-66
2024/03/05 04:18:55;;;;;;;24.90;11.75;;;;;;;3.80;53.28;101447.81;5013559;28;20040;-67
2024/03/05 04:21:20;;;;;;;20.10;12.38;;;;;;;3.79;53.54;101440.94;4998574;28;20045;-67
2024/03/05 04:23:46;;;;;;;21.55;11.82;;;;;;;3.85;52.96;101447.81;5020573;28;20040;-69
2024/03/05 04:26:13;;;;;;;24.40;12.38;;;;;;;3.67;53.12;101447.84;5014868;28;20049;-68
2024/03/05 04:28:48;;;;;;;24.60;11.98;;;;;;;3.66;53.36;101448.72;5018610;28;20033;-65
2024/03/05 04:31:18;;;;;;;28.48;12.65;;;;;;;3.64;53.61;101453.88;5016161;28;20042;-68
2024/03/05 04:33:46;;;;;;;22.85;11.60;;;;;;;3.67;53.22;101458.19;5028865;28;20032;-68
2024/03/05 04:36:14;;;;;;;26.60;13.32;;;;;;;3.55;53.59;101456.50;5015247;28;20060;-68
2024/03/05 04:38:43;;;;;;;31.50;13.05;;;;;;;3.67;53.16;101455.59;5026606;28;20033;-68
2024/03/05 04:41:13;;;;;;;23.08;12.25;;;;;;;3.70;53.04;101453.03;5015014;28;20135;-69
2024/03/05 04:43:39;;;;;;;18.67;11.32;;;;;;;3.66;53.18;101461.66;5022388;28;20498;-70
2024/03/05 04:46:05;;;;;;;20.60;12.73;;;;;;;3.63;53.03;101459.94;5010136;28;20139;-69
2024/03/05 04:48:31;;;;;;;25.13;12.00;;;;;;;3.63;53.30;101467.69;5014314;28;20087;-64
2024/03/05 04:50:56;;;;;;;27.85;11.57;;;;;;;3.44;53.62;101464.25;5016264;28;20044;-68
2024/03/05 04:53:22;;;;;;;27.15;12.68;;;;;;;3.54;53.30;101465.13;5019102;28;20071;-65
2024/03/05 04:55:48;;;;;;;28.58;14.18;;;;;;;3.51;53.56;101463.38;5014139;28;20130;-65
2024/03/05 04:58:14;;;;;;;28.08;12.52;;;;;;;3.48;53.73;101465.97;5018102;28;20421;-65
2024/03/05 05:00:40;;;;;;;26.08;13.80;;;;;;;3.20;54.43;101470.25;5030275;28;20122;-67
2024/03/05 05:03:06;;;;;;;22.83;14.43;;;;;;;2.82;55.30;101476.22;5021016;28;20418;-65
2024/03/05 05:05:32;;;;;;;30.92;13.27;;;;;;;2.88;55.32;101477.97;5014683;28;20096;-64
2024/03/05 05:08:03;;;;;;;30.95;13.48;;;;;;;2.80;56.02;101474.50;5022954;28;20044;-67
2024/03/05 05:10:28;;;;;;;23.75;13.80;;;;;;;2.65;56.27;101480.50;5024362;28;20110;-67
2024/03/05 05:12:54;;;;;;;22.00;12.15;;;;;;;2.72;56.68;101477.94;5021248;28;20285;-69
2024/03/05 05:15:19;;;;;;;27.98;15.00;;;;;;;2.57;56.88;101473.59;5023062;28;20344;-69
2024/03/05 05:17:45;;;;;;;34.28;15.20;;;;;;;2.62;57.06;101478.75;5016550;28;20321;-68
2024/03/05 05:20:15;;;;;;;27.75;13.88;;;;;;;2.67;57.43;101478.81;5024820;28;20729;-70
2024/03/05 05:22:44;;;;;;;30.55;13.38;;;;;;;2.63;57.45;101483.06;5022691;28;20064;-66
2024/03/05 05:25:19;;;;;;;27.45;13.35;;;;;;;2.68;57.25;101475.34;5022369;28;20024;-66
2024/03/05 05:27:48;;;;;;;27.33;13.85;;;;;;;2.81;57.40;101476.25;5032704;28;20064;-67
2024/03/05 05:30:19;;;;;;;28.67;13.45;;;;;;;2.86;57.10;101479.69;5020223;28;20082;-68
2024/03/05 05:32:48;;;;;;;30.30;14.07;;;;;;;2.84;56.78;101476.25;5026746;28;20040;-68
2024/03/05 05:35:15;;;;;;;22.80;12.35;;;;;;;2.74;57.51;101473.63;5009207;28;20067;-67
2024/03/05 05:37:40;;;;;;;24.63;13.60;;;;;;;2.82;57.20;101470.22;5029260;28;20032;-67
2024/03/05 05:40:10;;;;;;;22.45;13.20;;;;;;;2.73;57.36;101478.78;5030746;28;20036;-66
2024/03/05 05:42:39;;;;;;;25.85;13.30;;;;;;;2.73;57.18;101471.94;5023496;28;20036;-66
2024/03/05 05:45:12;;;;;;;29.10;13.77;;;;;;;2.77;57.29;101470.19;5032719;28;20033;-67
2024/03/05 05:47:42;;;;;;;30.23;13.90;;;;;;;2.87;56.86;101473.69;5025507;28;20040;-69
2024/03/05 05:50:17;;;;;;;29.38;13.80;;;;;;;2.85;57.19;101478.84;5025678;28;20762;-69
2024/03/05 05:52:52;;;;;;;26.17;12.88;;;;;;;2.91;57.27;101475.38;5036210;28;20033;-69
2024/03/05 05:55:22;;;;;;;24.08;13.18;;;;;;;2.85;57.02;101480.56;5016588;28;20032;-69
2024/03/05 05:57:48;;;;;;;29.42;12.50;;;;;;;2.70;57.36;101489.13;5026829;28;20036;-69
2024/03/05 06:00:24;;;;;;;23.83;12.35;;;;;;;2.91;56.80;101480.53;5019640;28;20094;-69
2024/03/05 06:02:54;;;;;;;25.08;12.93;;;;;;;2.82;57.14;101481.38;5024598;28;20182;-70
2024/03/05 06:05:26;;;;;;;21.58;12.15;;;;;;;2.62;57.32;101481.34;5016839;28;20039;-68
2024/03/05 06:07:52;;;;;;;;;;;;;;;2.85;56.94;101488.31;5032067;28;20135;-67
2024/03/05 06:10:18;;;;;;;30.23;12.48;;;;;;;2.90;56.86;101486.59;5019857;28;20007;-70
2024/03/05 06:12:47;;;;;;;22.65;12.50;;;;;;;2.98;56.13;101487.47;5028442;28;20051;-68
2024/03/05 06:15:13;;;;;;;34.83;14.18;;;;;;;2.99;56.42;101496.94;5021658;28;20050;-67
2024/03/05 06:17:40;;;;;;;31.77;15.25;;;;;;;2.84;56.40;101492.59;5016009;28;20294;-66
2024/03/05 06:20:10;;;;;;;25.73;14.48;;;;;;;2.82;56.44;101494.28;5024089;28;20032;-68
2024/03/05 06:22:40;;;;;;;33.45;14.25;;;;;;;2.76;56.57;101500.31;4998903;28;20055;-72
2024/03/05 06:25:11;;;;;;;30.80;14.82;;;;;;;2.56;56.98;101507.16;5031647;28;20061;-72
2024/03/05 06:27:38;;;;;;;34.55;15.23;;;;;;;2.56;57.13;101507.16;5022854;28;20125;-73
2024/03/05 06:30:07;;;;;;;36.17;15.90;;;;;;;2.55;56.99;101510.56;5013543;28;20037;-71
2024/03/05 06:32:43;;;;;;;40.72;15.25;;;;;;;2.43;57.23;101510.53;4991140;28;20354;-71
2024/03/05 06:35:12;;;;;;;28.88;14.32;;;;;;;2.51;57.29;101511.41;5026867;28;20486;-74
2024/03/05 06:37:39;;;;;;;33.47;15.75;;;;;;;2.53;57.07;101514.88;5017994;28;20083;-71
2024/03/05 06:40:09;;;;;;;28.92;15.70;;;;;;;2.59;57.10;101512.31;5004978;28;20044;-72
2024/03/05 06:42:41;;;;;;;43.55;16.25;;;;;;;2.36;57.13;101507.06;5009311;28;20713;-73
2024/03/05 06:45:14;;;;;;;39.72;15.88;;;;;;;2.26;57.50;101519.03;5027013;28;20085;-73
2024/03/05 06:47:46;;;;;;;39.42;17.25;;;;;;;2.24;57.73;101520.78;5019948;28;20119;-69
2024/03/05 06:50:23;;;;;;;31.67;16.23;;;;;;;2.25;57.80;101525.06;5025843;28;20047;-70
2024/03/05 06:58:22;;;;;;;38.22;19.45;;;;;;;1.93;59.93;101528.34;5021146;28;20032;-70
2024/03/05 07:00:49;;;;;;;33.17;16.05;;;;;;;1.93;59.71;101536.06;5019978;28;20045;-77
2024/03/05 07:03:17;;;;;;;42.78;18.48;;;;;;;1.94;59.85;101526.63;5022105;28;20123;-71
2024/03/05 07:05:43;;;;;;;44.97;19.35;;;;;;;1.97;59.60;101525.75;5023684;28;20029;-72
2024/03/05 07:08:09;;;;;;;42.13;19.23;;;;;;;2.05;59.99;101529.25;5028010;28;20103;-70
2024/03/05 07:10:35;;;;;;;44.15;19.23;;;;;;;2.00;60.11;101536.09;5021165;28;20040;-72
2024/03/05 07:13:01;;;;;;;38.45;18.35;;;;;;;1.97;60.08;101542.09;5023831;28;20025;-71
2024/03/05 07:15:27;;;;;;;41.03;18.10;;;;;;;2.10;60.26;101533.56;5014450;28;20489;-71
2024/03/05 07:17:52;;;;;;;49.75;22.08;;;;;;;2.12;60.03;101541.34;5023923;28;20063;-75
2024/03/05 07:20:19;;;;;;;38.63;17.65;;;;;;;2.09;60.34;101547.34;5020257;28;20029;-78
2024/03/05 07:22:48;;;;;;;35.47;17.60;;;;;;;2.21;60.10;101543.09;4985364;28;20047;-74
2024/03/05 07:25:17;;;;;;;41.08;18.92;;;;;;;2.34;60.19;101544.91;4992118;28;20607;-73
2024/03/05 07:27:44;;;;;;;40.83;19.13;;;;;;;2.30;60.21;101548.31;5015624;28;20041;-78
2024/03/05 07:30:18;;;;;;;43.50;19.90;;;;;;;2.24;60.34;101544.00;5025591;28;20121;-72
2024/03/05 07:32:47;;;;;;;43.38;17.83;;;;;;;2.14;60.80;101543.06;5026294;28;20208;-77
2024/03/05 07:35:15;;;;;;;42.20;19.90;;;;;;;2.25;60.64;101540.56;5006175;28;20039;-73
2024/03/05 07:37:44;;;;;;;40.65;19.77;;;;;;;2.12;60.80;101546.50;5007964;28;20233;-73
2024/03/05 07:40:22;;;;;;;41.58;20.23;;;;;;;2.08;61.18;101539.59;5001341;28;20040;-75
2024/03/05 07:42:53;;;;;;;39.88;21.10;;;;;;;1.81;61.82;101543.69;5035008;28;20032;-76
2024/03/05 07:45:20;;;;;;;43.80;21.88;;;;;;;2.02;61.40;101540.44;5025432;28;20098;-69
2024/03/05 07:47:47;;;;;;;38.67;20.92;;;;;;;2.02;61.18;101539.53;5023654;28;20076;-70
2024/03/05 07:50:16;;;;;;;46.08;20.73;;;;;;;1.88;61.75;101550.63;5025842;28;20832;-70
2024/03/05 07:52:44;;;;;;;37.45;20.38;;;;;;;1.96;61.37;101548.13;5025882;28;20565;-69
2024/03/05 07:55:16;;;;;;;39.83;19.48;;;;;;;2.13;61.58;101548.19;5028473;28;20548;-70
2024/03/05 07:57:45;;;;;;;39.78;19.73;;;;;;;2.21;61.12;101558.59;5013980;28;20233;-68
2024/03/05 08:00:13;;;;;;;38.78;19.63;;;;;;;2.07;61.51;101558.50;5026481;28;20040;-68
2024/03/05 08:02:41;;;;;;;38.10;20.90;;;;;;;2.16;61.23;101563.72;5021626;28;20102;-69
2024/03/05 08:05:13;;;;;;;45.60;19.92;;;;;;;2.22;60.89;101561.19;5032072;28;20032;-69
2024/03/05 08:07:39;;;;;;;45.45;21.13;;;;;;;1.96;61.43;101563.59;5021174;28;20045;-69
2024/03/05 08:10:07;;;;;;;39.33;19.75;;;;;;;2.06;61.67;101564.50;5027584;28;20444;-68
2024/03/05 08:12:39;;;;;;;36.72;20.17;;;;;;;2.05;61.15;101561.06;5022708;28;20055;-68
2024/03/05 08:15:06;;;;;;;43.80;20.90;;;;;;;1.99;61.51;101570.47;5030567;28;20144;-69
2024/03/05 08:17:35;;;;;;;45.92;22.15;;;;;;;1.91;61.21;101563.56;5023085;28;20048;-69
2024/03/05 08:20:01;;;;;;;41.78;19.80;;;;;;;1.92;61.64;101564.41;5029343;28;20123;-68
2024/03/05 08:22:29;;;;;;;43.88;20.70;;;;;;;1.86;62.19;101570.41;5021337;28;20095;-69
2024/03/05 08:24:55;;;;;;;45.83;20.45;;;;;;;1.96;61.44;101565.31;5019394;28;20520;-68
2024/03/05 08:27:21;;;;;;;50.67;20.48;;;;;;;1.81;61.55;101559.16;5025478;28;20040;-69
2024/03/05 08:29:49;;;;;;;45.78;20.15;;;;;;;2.07;60.87;101563.66;5018660;28;20240;-69
2024/03/05 08:32:18;;;;;;;40.15;19.25;;;;;;;1.88;61.21;101567.81;5022801;28;20041;-68
2024/03/05 08:34:44;;;;;;;45.60;20.30;;;;;;;2.00;60.74;101572.19;5019074;28;20040;-69
2024/03/05 08:37:11;;;;;;;48.83;21.40;;;;;;;2.14;60.42;101570.56;5038134;27;20052;-69
2024/03/05 08:39:39;;;;;;;41.38;21.23;;;;;;;2.16;60.50;101568.03;5024221;28;20116;-69
2024/03/05 08:42:05;;;;;;;40.92;19.23;;;;;;;2.10;60.57;101573.97;5024305;28;20080;-69
2024/03/05 08:44:31;;;;;;;45.90;21.42;;;;;;;2.08;60.35;101575.69;5026067;28;20064;-68
2024/03/05 08:46:57;;;;;;;49.05;20.83;;;;;;;2.10;60.22;101573.97;5019158;28;20040;-68
2024/03/05 08:49:25;;;;;;;46.15;21.08;;;;;;;2.17;60.46;101569.72;5029448;28;20886;-68
2024/03/05 08:51:54;;;;;;;47.53;20.15;;;;;;;1.97;60.54;101577.34;5012539;28;20055;-69
2024/03/05 08:54:20;;;;;;;43.80;19.85;;;;;;;2.02;60.65;101575.63;5032537;28;20071;-68
2024/03/05 08:56:47;;;;;;;42.72;19.48;;;;;;;2.08;60.51;101579.13;5017577;28;20052;-68
2024/03/05 08:59:13;;;;;;;44.42;20.58;;;;;;;1.98;61.21;101579.06;5030182;28;20702;-68
2024/03/05 09:01:38;;;;;;;45.65;21.27;;;;;;;2.01;61.41;101579.09;5019090;28;20068;-69
2024/03/05 09:04:06;;;;;;;42.15;21.58;;;;;;;2.00;61.26;101577.34;5029185;28;20392;-68
2024/03/05 09:06:32;;;;;;;46.40;20.90;;;;;;;2.18;60.54;101576.63;5024560;28;20119;-69
2024/03/05 09:08:58;;;;;;;38.65;19.58;;;;;;;2.26;60.98;101574.94;5024269;28;21016;-68
2024/03/05 09:11:23;;;;;;;46.67;21.95;;;;;;;2.20;60.97;101570.63;5029447;28;20048;-68
2024/03/05 09:13:49;;;;;;;47.33;21.38;;;;;;;2.14;61.19;101580.91;5016811;28;20502;-68
2024/03/05 09:16:14;;;;;;;47.67;22.65;;;;;;;2.25;60.67;101580.97;5026438;28;20655;-68
2024/03/05 09:18:43;;;;;;;42.95;21.42;;;;;;;2.07;61.02;101582.56;5018223;28;20127;-68
2024/03/05 09:21:09;;;;;;;47.15;22.20;;;;;;;1.97;61.23;101585.91;5030361;28;20138;-69
2024/03/05 09:23:36;;;;;;;43.13;21.08;;;;;;;2.19;61.26;101579.19;5022211;28;20029;-69
2024/03/05 09:26:04;;;;;;;42.67;21.27;;;;;;;2.30;60.55;101577.53;5029562;28;20037;-68
2024/03/05 09:28:31;;;;;;;49.80;21.90;;;;;;;2.44;60.52;101581.91;5031842;28;20043;-68
2024/03/05 09:30:57;;;;;;;48.70;21.58;;;;;;;2.19;61.45;101592.09;5018249;28;20071;-68
2024/03/05 09:33:24;;;;;;;48.65;19.92;;;;;;;2.44;60.66;101584.50;5027008;28;20116;-68
2024/03/05 09:35:49;;;;;;;48.10;23.27;;;;;;;2.43;60.27;101586.22;5016839;28;20037;-68
2024/03/05 09:38:16;;;;;;;42.17;20.13;;;;;;;2.41;60.37;101584.50;5028557;28;20071;-68
2024/03/05 09:40:42;;;;;;;51.85;22.67;;;;;;;2.51;60.73;101587.13;5016710;28;20037;-69
2024/03/05 09:43:08;;;;;;;49.95;21.65;;;;;;;2.47;60.56;101587.09;5029610;28;20040;-68
2024/03/05 09:45:37;;;;;;;41.97;21.85;;;;;;;2.17;61.48;101588.63;5024467;28;20056;-68
2024/03/05 09:48:04;;;;;;;44.20;19.60;;;;;;;2.30;61.09;101587.84;5025783;28;20028;-67
2024/03/05 09:50:34;;;;;;;41.03;19.77;;;;;;;2.37;61.14;101587.91;5015073;28;20111;-68
2024/03/05 09:52:59;;;;;;;36.58;18.63;;;;;;;2.68;60.68;101594.09;5008715;28;20187;-68
2024/03/05 09:55:29;;;;;;;45.15;18.98;;;;;;;2.74;60.68;101594.13;5026644;28;20153;-68
2024/03/05 09:57:55;;;;;;;37.92;18.83;;;;;;;2.83;59.98;101594.16;5019381;28;20037;-70
2024/03/05 10:00:22;;;;;;;39.25;16.88;;;;;;;2.67;59.85;101590.66;5026260;28;20067;-75
2024/03/05 10:02:50;;;;;;;37.80;17.13;;;;;;;2.75;59.49;101588.94;5009653;28;20036;-72
2024/03/05 10:05:19;;;;;;;33.20;16.67;;;;;;;2.62;59.11;101602.66;4992494;28;20485;-71
2024/03/05 10:07:47;;;;;;;32.25;15.68;;;;;;;2.85;58.71;101601.91;5010940;28;20595;-69
2024/03/05 10:10:17;;;;;;;33.78;15.73;;;;;;;3.05;58.42;101592.50;5020808;28;20406;-71
2024/03/05 10:12:43;;;;;;;40.22;16.80;;;;;;;2.96;58.28;101600.22;5014772;28;20048;-72
2024/03/05 10:15:18;;;;;;;36.53;17.35;;;;;;;3.01;58.19;101600.25;4996511;28;20036;-69
2024/03/05 10:17:45;;;;;;;30.13;14.85;;;;;;;2.96;57.79;101605.41;5015433;28;20064;-72
2024/03/05 10:20:32;;;;;;;29.73;15.20;;;;;;;3.03;57.35;101595.94;5023052;28;20050;-71
2024/03/05 10:23:02;;;;;;;31.05;14.90;;;;;;;3.14;57.44;101605.44;5017075;28;20533;-71
2024/03/05 10:25:29;;;;;;;32.63;15.25;;;;;;;3.27;56.55;101603.75;5009241;28;20038;-71
2024/03/05 10:27:55;;;;;;;25.48;13.82;;;;;;;3.24;56.77;101615.78;5010064;28;20108;-72
2024/03/05 10:30:36;;;;;;;31.65;14.57;;;;;;;3.16;56.21;101613.19;5024920;28;20028;-71
2024/03/05 10:33:07;;;;;;;28.75;13.52;;;;;;;2.70;56.22;101618.19;5016880;28;20153;-71
2024/03/05 10:35:33;;;;;;;;;;;;;;;2.96;55.29;101615.72;5002027;28;20067;-71
2024/03/05 10:38:08;;;;;;;27.67;12.77;;;;;;;3.03;55.43;101614.88;4998791;28;20023;-71
2024/03/05 10:40:37;;;;;;;26.02;13.20;;;;;;;2.99;55.94;101623.47;5018539;28;20109;-69
2024/03/05 10:43:08;;;;;;;32.45;12.85;;;;;;;3.28;55.08;101622.69;5012431;28;20056;-69
2024/03/05 10:45:37;;;;;;;28.60;12.50;;;;;;;2.80;55.06;101621.66;5017974;28;23154;-69
2024/03/05 10:48:04;;;;;;;25.92;12.93;;;;;;;2.80;55.37;101622.53;5013531;28;20080;-70
2024/03/05 10:50:33;;;;;;;26.30;12.88;;;;;;;3.01;54.52;101628.66;5018885;28;20152;-72
2024/03/05 10:53:04;;;;;;;32.58;12.52;;;;;;;3.17;54.39;101631.28;5011595;28;20154;-70
2024/03/05 10:55:33;;;;;;;33.55;11.95;;;;;;;3.24;53.96;101626.13;5006347;28;20024;-70
2024/03/05 11:00:41;;;;;;;20.90;11.55;;;;;;;3.35;53.93;101627.03;5016899;28;20114;-69
2024/03/05 11:03:10;;;;;;;23.83;13.70;;;;;;;3.65;53.34;101627.94;5000850;28;20090;-71
2024/03/05 11:05:50;;;;;;;18.35;11.25;;;;;;;3.41;53.30;101636.56;5003260;28;20147;-71
2024/03/05 11:08:18;;;;;;;29.25;13.73;;;;;;;3.45;53.31;101638.25;4998051;28;20133;-72
2024/03/05 11:10:49;;;;;;;24.02;11.85;;;;;;;3.44;53.47;101639.97;5006131;28;20471;-70
2024/03/05 11:13:16;;;;;;;25.15;12.55;;;;;;;3.33;52.98;101636.50;5000433;28;21634;-70
2024/03/05 11:15:42;;;;;;;20.92;11.43;;;;;;;3.62;53.21;101633.13;4990545;28;20029;-71
2024/03/05 11:18:30;;;;;;;34.53;13.00;;;;;;;3.72;53.88;101634.88;4988207;28;20794;-72
2024/03/05 11:21:05;;;;;;;19.98;12.80;;;;;;;3.46;53.28;101630.50;4987625;28;20142;-69
2024/03/05 11:23:32;;;;;;;27.40;14.25;;;;;;;3.39;53.24;101633.94;4999925;28;20983;-68
2024/03/05 11:26:03;;;;;;;25.95;11.88;;;;;;;3.43;53.08;101625.34;4992111;28;20166;-69
2024/03/05 11:28:29;;;;;;;23.23;12.60;;;;;;;3.44;53.25;101631.38;5024807;28;20033;-68